Hmcs Charlottetown — CGAJ — position and weather

sailwx.info

Track history (hours):
 
Tides and Currents Weather Stations Pressure Air Temp Water Temp Dewpoint Dewpoint Depression Visibility Wind Speed Wind Dir Waves Ship Positions

Hmcs Charlottetown

Last reported at 2015-Jul-02 13:30 UTC. Time now 2015-Jul-04 20:40 UTC.
Position N 44°25' W 063°20'.

; draft 7.5 m.

Type: Military. MMSI: 235830006.

Date/timePositionNaut miles runAvg speedWind from/ knotsBaromVisibWave heightAir tempDewpointWater temp
2015-Jul-02 13:30N 44°25' W 063°20'1516.1
2015-Jul-02 12:33N 44°37' W 063°33'2 2.3
2015-Jul-02 11:33N 44°39' W 063°34'0 0.0
2015-Jul-02 10:33N 44°39' W 063°34'0 0.0
2015-Jul-02 09:33N 44°39' W 063°34'0 0.0
2015-Jul-02 08:33N 44°39' W 063°34'0 0.0
2015-Jul-02 07:33N 44°39' W 063°34'0 0.0
2015-Jul-02 06:33N 44°39' W 063°34'0 0.0
2015-Jul-02 05:33N 44°39' W 063°34'0 0.0
2015-Jul-02 04:33N 44°39' W 063°34'0 0.0
2015-Jul-02 03:33N 44°39' W 063°34'0 0.0
2015-Jul-02 02:33N 44°39' W 063°34'0 0.0
2015-Jul-02 01:33N 44°39' W 063°34'0 0.0
2015-Jul-02 00:33N 44°39' W 063°34'0 0.0
2015-Jul-01 23:33N 44°39' W 063°34'0 0.0
2015-Jul-01 22:33N 44°39' W 063°34'0 0.0
2015-Jul-01 21:33N 44°39' W 063°34'0 0.0
2015-Jul-01 20:33N 44°39' W 063°34'0 0.0
2015-Jul-01 19:33N 44°39' W 063°34'0 0.0
2015-Jul-01 18:33N 44°39' W 063°34'0 0.0
2015-Jul-01 17:33N 44°39' W 063°34'0 0.0
2015-Jul-01 16:33N 44°39' W 063°34'0 0.0
2015-Jul-01 15:33N 44°39' W 063°34'0 0.0
2015-Jul-01 14:33N 44°39' W 063°34'0 0.0
2015-Jul-01 13:33N 44°39' W 063°34'0 0.0
2015-Jul-01 12:33N 44°39' W 063°34'0 0.0
2015-Jul-01 11:33N 44°39' W 063°34'0 0.0
2015-Jul-01 10:33N 44°39' W 063°34'0 0.0
2015-Jul-01 09:33N 44°39' W 063°34'0 0.0
2015-Jul-01 08:33N 44°39' W 063°34'0 0.0
2015-Jul-01 07:33N 44°39' W 063°34'0 0.0
2015-Jul-01 06:33N 44°39' W 063°34'0 0.0
2015-Jul-01 05:33N 44°39' W 063°34'0 0.0
2015-Jul-01 04:33N 44°39' W 063°34'0 0.0
2015-Jul-01 03:33N 44°39' W 063°34'0 0.0
2015-Jul-01 02:33N 44°39' W 063°34'0 0.0
2015-Jul-01 01:33N 44°39' W 063°34'0 0.0
2015-Jul-01 00:33N 44°39' W 063°34'0 0.0
2015-Jun-30 23:33N 44°39' W 063°34'0 0.0
2015-Jun-30 22:33N 44°39' W 063°34'0 0.0
2015-Jun-30 21:33N 44°39' W 063°34'0 0.0
2015-Jun-30 20:33N 44°39' W 063°34'0 0.0
2015-Jun-30 19:33N 44°39' W 063°34'0 0.1
2015-Jun-30 18:33N 44°39' W 063°34'1 0.8
2015-Jun-30 17:33N 44°40' W 063°35'0 0.0
2015-Jun-30 16:33N 44°40' W 063°35'0 0.0
2015-Jun-30 15:33N 44°40' W 063°35'0 0.0
2015-Jun-30 14:33N 44°40' W 063°35'0 0.0
2015-Jun-30 13:33N 44°40' W 063°35'0 0.0
2015-Jun-30 12:33N 44°40' W 063°35'0 0.1
2015-Jun-30 11:33N 44°40' W 063°35'1010.1
2015-Jun-30 10:33N 44°30' W 063°29'6 6.0
2015-Jun-30 09:33N 44°31' W 063°21'1 0.7
2015-Jun-30 08:16N 44°31' W 063°22'5 2.7
2015-Jun-30 06:29N 44°31' W 063°15'4 4.6
2015-Jun-30 05:33N 44°31' W 063°21'6 5.7
2015-Jun-30 04:33N 44°27' W 063°26'5 0.3
2015-Jun-29 13:26N 44°30' W 063°31'1010.8
2015-Jun-29 12:33N 44°40' W 063°35'0 0.2
2015-Jun-29 11:33N 44°39' W 063°35'0 0.0
2015-Jun-29 10:33N 44°39' W 063°35'0 0.0
2015-Jun-29 09:33N 44°39' W 063°35'0 0.0
2015-Jun-29 08:33N 44°39' W 063°35'0 0.0
2015-Jun-29 07:33N 44°39' W 063°35'0 0.0
2015-Jun-29 06:33N 44°39' W 063°35'0 0.0
2015-Jun-29 05:33N 44°39' W 063°35'0 0.0
2015-Jun-29 04:33N 44°39' W 063°35'0 0.0
2015-Jun-29 03:33N 44°39' W 063°35'0 0.0
2015-Jun-29 02:33N 44°39' W 063°35'0 0.0
2015-Jun-29 01:33N 44°39' W 063°35'0 0.0
2015-Jun-29 00:33N 44°39' W 063°35'0 0.0
2015-Jun-28 23:33N 44°39' W 063°35'0 0.0
2015-Jun-28 22:33N 44°39' W 063°35'0 0.0
2015-Jun-28 21:33N 44°39' W 063°35'0 0.0
2015-Jun-28 20:33N 44°39' W 063°35'0 0.0
2015-Jun-28 19:33N 44°39' W 063°35'0 0.0
2015-Jun-28 18:33N 44°39' W 063°35'0 0.0
2015-Jun-28 17:32N 44°39' W 063°35'0 0.0
2015-Jun-28 16:33N 44°39' W 063°35'0 0.0
2015-Jun-28 15:33N 44°39' W 063°35'0 0.0
2015-Jun-28 14:33N 44°39' W 063°35'0 0.0
2015-Jun-28 13:33N 44°39' W 063°35'0 0.0
2015-Jun-28 12:33N 44°39' W 063°35'3 3.2
2015-Jun-28 11:33N 44°37' W 063°33'8 8.3
2015-Jun-28 10:33N 44°31' W 063°24'1 0.6
2015-Jun-28 09:33N 44°31' W 063°23'1 1.3
2015-Jun-28 08:25N 44°31' W 063°21'3 1.6
2015-Jun-28 06:33N 44°30' W 063°18'4 3.7
2015-Jun-28 05:21N 44°32' W 063°23'3 3.7
2015-Jun-28 04:32N 44°33' W 063°20'5 2.5
2015-Jun-28 02:33N 44°33' W 063°13'7 6.5
2015-Jun-28 01:33N 44°34' W 063°22'1 1.2
2015-Jun-28 00:33N 44°33' W 063°20'3 2.8
2015-Jun-27 23:33N 44°33' W 063°17'5 5.0
2015-Jun-27 22:33N 44°33' W 063°24'7 6.0
2015-Jun-27 21:22N 44°33' W 063°14'6 7.3
2015-Jun-27 20:33N 44°33' W 063°22'7 6.9
2015-Jun-27 19:33N 44°33' W 063°12'7 6.6
2015-Jun-27 18:32N 44°33' W 063°22'3 2.9
2015-Jun-27 17:33N 44°32' W 063°18'5 4.3
2015-Jun-27 16:30N 44°30' W 063°23'6 2.9
2015-Jun-27 14:30N 44°33' W 063°16'2 2.1
2015-Jun-27 13:33N 44°34' W 063°14'5 4.5
2015-Jun-27 12:31N 44°31' W 063°19'5 4.7
2015-Jun-27 11:22N 44°34' W 063°13'3 3.6
2015-Jun-27 10:32N 44°33' W 063°16'4 4.4
2015-Jun-27 09:33N 44°30' W 063°21'1 1.0
2015-Jun-27 08:34N 44°29' W 063°22'2 1.8
2015-Jun-27 07:33N 44°29' W 063°19'3 3.0
2015-Jun-27 06:33N 44°32' W 063°21'1 0.8
2015-Jun-27 05:31N 44°32' W 063°20'3 3.4
2015-Jun-27 04:32N 44°34' W 063°17'2 1.5
2015-Jun-27 03:29N 44°33' W 063°18'3 3.3
2015-Jun-27 02:33N 44°33' W 063°23'3 2.7
2015-Jun-27 01:32N 44°33' W 063°19'3 3.1
2015-Jun-27 00:33N 44°34' W 063°15'5 2.1
2015-Jun-26 22:18N 44°30' W 063°10'3 3.8
2015-Jun-26 21:30N 44°30' W 063°14'9 9.2
2015-Jun-26 20:33N 44°31' W 063°26'1110.7
2015-Jun-26 19:33N 44°39' W 063°35'  
Track history (hours):
 
Tides and Currents Weather Stations Pressure Air Temp Water Temp Dewpoint Dewpoint Depression Visibility Wind Speed Wind Dir Waves Ship Positions

Hmcs Charlottetown

Last reported at 2015-Jul-02 13:30 UTC. Time now 2015-Jul-04 20:40 UTC.
Position N 44°25' W 063°20'.

; draft 7.5 m.

Type: Military. MMSI: 235830006.

Date/timePositionNaut miles runAvg speedWind from/ knotsBaromVisibWave heightAir tempDewpointWater temp
2015-Jul-02 13:30N 44°25' W 063°20'1516.1
2015-Jul-02 12:33N 44°37' W 063°33'2 2.3
2015-Jul-02 11:33N 44°39' W 063°34'0 0.0
2015-Jul-02 10:33N 44°39' W 063°34'0 0.0
2015-Jul-02 09:33N 44°39' W 063°34'0 0.0
2015-Jul-02 08:33N 44°39' W 063°34'0 0.0
2015-Jul-02 07:33N 44°39' W 063°34'0 0.0
2015-Jul-02 06:33N 44°39' W 063°34'0 0.0
2015-Jul-02 05:33N 44°39' W 063°34'0 0.0
2015-Jul-02 04:33N 44°39' W 063°34'0 0.0
2015-Jul-02 03:33N 44°39' W 063°34'0 0.0
2015-Jul-02 02:33N 44°39' W 063°34'0 0.0
2015-Jul-02 01:33N 44°39' W 063°34'0 0.0
2015-Jul-02 00:33N 44°39' W 063°34'0 0.0
2015-Jul-01 23:33N 44°39' W 063°34'0 0.0
2015-Jul-01 22:33N 44°39' W 063°34'0 0.0
2015-Jul-01 21:33N 44°39' W 063°34'0 0.0
2015-Jul-01 20:33N 44°39' W 063°34'0 0.0
2015-Jul-01 19:33N 44°39' W 063°34'0 0.0
2015-Jul-01 18:33N 44°39' W 063°34'0 0.0
2015-Jul-01 17:33N 44°39' W 063°34'0 0.0
2015-Jul-01 16:33N 44°39' W 063°34'0 0.0
2015-Jul-01 15:33N 44°39' W 063°34'0 0.0
2015-Jul-01 14:33N 44°39' W 063°34'0 0.0
2015-Jul-01 13:33N 44°39' W 063°34'0 0.0
2015-Jul-01 12:33N 44°39' W 063°34'0 0.0
2015-Jul-01 11:33N 44°39' W 063°34'0 0.0
2015-Jul-01 10:33N 44°39' W 063°34'0 0.0
2015-Jul-01 09:33N 44°39' W 063°34'0 0.0
2015-Jul-01 08:33N 44°39' W 063°34'0 0.0
2015-Jul-01 07:33N 44°39' W 063°34'0 0.0
2015-Jul-01 06:33N 44°39' W 063°34'0 0.0
2015-Jul-01 05:33N 44°39' W 063°34'0 0.0
2015-Jul-01 04:33N 44°39' W 063°34'0 0.0
2015-Jul-01 03:33N 44°39' W 063°34'0 0.0
2015-Jul-01 02:33N 44°39' W 063°34'0 0.0
2015-Jul-01 01:33N 44°39' W 063°34'0 0.0
2015-Jul-01 00:33N 44°39' W 063°34'0 0.0
2015-Jun-30 23:33N 44°39' W 063°34'0 0.0
2015-Jun-30 22:33N 44°39' W 063°34'0 0.0
2015-Jun-30 21:33N 44°39' W 063°34'0 0.0
2015-Jun-30 20:33N 44°39' W 063°34'0 0.0
2015-Jun-30 19:33N 44°39' W 063°34'0 0.1
2015-Jun-30 18:33N 44°39' W 063°34'1 0.8
2015-Jun-30 17:33N 44°40' W 063°35'0 0.0
2015-Jun-30 16:33N 44°40' W 063°35'0 0.0
2015-Jun-30 15:33N 44°40' W 063°35'0 0.0
2015-Jun-30 14:33N 44°40' W 063°35'0 0.0
2015-Jun-30 13:33N 44°40' W 063°35'0 0.0
2015-Jun-30 12:33N 44°40' W 063°35'0 0.1
2015-Jun-30 11:33N 44°40' W 063°35'1010.1
2015-Jun-30 10:33N 44°30' W 063°29'6 6.0
2015-Jun-30 09:33N 44°31' W 063°21'1 0.7
2015-Jun-30 08:16N 44°31' W 063°22'5 2.7
2015-Jun-30 06:29N 44°31' W 063°15'4 4.6
2015-Jun-30 05:33N 44°31' W 063°21'6 5.7
2015-Jun-30 04:33N 44°27' W 063°26'5 0.3
2015-Jun-29 13:26N 44°30' W 063°31'1010.8
2015-Jun-29 12:33N 44°40' W 063°35'0 0.2
2015-Jun-29 11:33N 44°39' W 063°35'0 0.0
2015-Jun-29 10:33N 44°39' W 063°35'0 0.0
2015-Jun-29 09:33N 44°39' W 063°35'0 0.0
2015-Jun-29 08:33N 44°39' W 063°35'0 0.0
2015-Jun-29 07:33N 44°39' W 063°35'0 0.0
2015-Jun-29 06:33N 44°39' W 063°35'0 0.0
2015-Jun-29 05:33N 44°39' W 063°35'0 0.0
2015-Jun-29 04:33N 44°39' W 063°35'0 0.0
2015-Jun-29 03:33N 44°39' W 063°35'0 0.0
2015-Jun-29 02:33N 44°39' W 063°35'0 0.0
2015-Jun-29 01:33N 44°39' W 063°35'0 0.0
2015-Jun-29 00:33N 44°39' W 063°35'0 0.0
2015-Jun-28 23:33N 44°39' W 063°35'0 0.0
2015-Jun-28 22:33N 44°39' W 063°35'0 0.0
2015-Jun-28 21:33N 44°39' W 063°35'0 0.0
2015-Jun-28 20:33N 44°39' W 063°35'0 0.0
2015-Jun-28 19:33N 44°39' W 063°35'0 0.0
2015-Jun-28 18:33N 44°39' W 063°35'0 0.0
2015-Jun-28 17:32N 44°39' W 063°35'0 0.0
2015-Jun-28 16:33N 44°39' W 063°35'0 0.0
2015-Jun-28 15:33N 44°39' W 063°35'0 0.0
2015-Jun-28 14:33N 44°39' W 063°35'0 0.0
2015-Jun-28 13:33N 44°39' W 063°35'0 0.0
2015-Jun-28 12:33N 44°39' W 063°35'3 3.2
2015-Jun-28 11:33N 44°37' W 063°33'8 8.3
2015-Jun-28 10:33N 44°31' W 063°24'1 0.6
2015-Jun-28 09:33N 44°31' W 063°23'1 1.3
2015-Jun-28 08:25N 44°31' W 063°21'3 1.6
2015-Jun-28 06:33N 44°30' W 063°18'4 3.7
2015-Jun-28 05:21N 44°32' W 063°23'3 3.7
2015-Jun-28 04:32N 44°33' W 063°20'5 2.5
2015-Jun-28 02:33N 44°33' W 063°13'7 6.5
2015-Jun-28 01:33N 44°34' W 063°22'1 1.2
2015-Jun-28 00:33N 44°33' W 063°20'3 2.8
2015-Jun-27 23:33N 44°33' W 063°17'5 5.0
2015-Jun-27 22:33N 44°33' W 063°24'7 6.0
2015-Jun-27 21:22N 44°33' W 063°14'6 7.3
2015-Jun-27 20:33N 44°33' W 063°22'7 6.9
2015-Jun-27 19:33N 44°33' W 063°12'7 6.6
2015-Jun-27 18:32N 44°33' W 063°22'3 2.9
2015-Jun-27 17:33N 44°32' W 063°18'5 4.3
2015-Jun-27 16:30N 44°30' W 063°23'6 2.9
2015-Jun-27 14:30N 44°33' W 063°16'2 2.1
2015-Jun-27 13:33N 44°34' W 063°14'5 4.5
2015-Jun-27 12:31N 44°31' W 063°19'5 4.7
2015-Jun-27 11:22N 44°34' W 063°13'3 3.6
2015-Jun-27 10:32N 44°33' W 063°16'4 4.4
2015-Jun-27 09:33N 44°30' W 063°21'1 1.0
2015-Jun-27 08:34N 44°29' W 063°22'2 1.8
2015-Jun-27 07:33N 44°29' W 063°19'3 3.0
2015-Jun-27 06:33N 44°32' W 063°21'1 0.8
2015-Jun-27 05:31N 44°32' W 063°20'3 3.4
2015-Jun-27 04:32N 44°34' W 063°17'2 1.5
2015-Jun-27 03:29N 44°33' W 063°18'3 3.3
2015-Jun-27 02:33N 44°33' W 063°23'3 2.7
2015-Jun-27 01:32N 44°33' W 063°19'3 3.1
2015-Jun-27 00:33N 44°34' W 063°15'5 2.1
2015-Jun-26 22:18N 44°30' W 063°10'3 3.8
2015-Jun-26 21:30N 44°30' W 063°14'9 9.2
2015-Jun-26 20:33N 44°31' W 063°26'1110.7
2015-Jun-26 19:33N 44°39' W 063°35'  

Dump ship's entire track history